Main page
METAR-TAF:

METAR-TAF

Airports :

Le Touquet – Côte d'Opale Airport

Le Touquet, France

latitude: 50-30-53N, longitude: 001-37-39E, elevation: 6 m

Current weather observation

The report was made 44 minutes ago, at 23:30 UTC
Calm wind
Temperature 3°C
Humidity 100%
Pressure 1011 hPa
Visibility: 7000 m
Scattered clouds at a height of 1800 ft
Overcast at a height of 4800 ft

METAR: LFAT 172330Z AUTO 00000KT 7000 SCT018 OVC048 03/03 Q1011

Time: 01:14 (00:14 UTC)

Forecast

The report was made 10 hours and 14 minutes ago, at 14:00 UTC
Forecast valid from 17 at 15 UTC to 17 at 24 UTC
Wind 2 kt from variable directions
Visibility 10 km or more
no clouds below 1500 m and no cumulonimbus
Becoming
from 17 at 19 UTC to 17 at 21 UTC
Visibility: 4000 m
mist

TAF: LFAT 171400Z 1715/1724 VRB02KT CAVOK BECMG 1719/1721 4000 BR

Weather observations and forecasts of more than 4000 airports (METAR and TAF reports).

The available stations are represented by yellow and red dots on the map.

Hover mouse over dot to see the name of the station.

Then click to see weather observations and forecasts.

To change the map : click on the green buttons with a black cross to zoom in, on the green button with a dash to zoom out, or on the green arrows for adjacent maps.


METAR-TAF: